sensor_id;sensor_type;location;lat;lon;timestamp;P1;durP1;ratioP1;P2;durP2;ratioP2
10414;SDS011;5254;47.696;9.138;2022-08-16T00:02:17;4.00;;;2.83;;
10414;SDS011;5254;47.696;9.138;2022-08-16T00:04:42;4.50;;;2.90;;
10414;SDS011;5254;47.696;9.138;2022-08-16T00:07:08;4.38;;;2.92;;
10414;SDS011;5254;47.696;9.138;2022-08-16T00:09:34;4.47;;;2.90;;
10414;SDS011;5254;47.696;9.138;2022-08-16T00:11:59;5.03;;;2.70;;
10414;SDS011;5254;47.696;9.138;2022-08-16T00:14:27;5.55;;;2.80;;
10414;SDS011;5254;47.696;9.138;2022-08-16T00:16:55;4.63;;;2.90;;
10414;SDS011;5254;47.696;9.138;2022-08-16T00:19:23;5.53;;;3.28;;
10414;SDS011;5254;47.696;9.138;2022-08-16T00:21:52;5.07;;;3.58;;
10414;SDS011;5254;47.696;9.138;2022-08-16T00:24:18;4.95;;;2.90;;
10414;SDS011;5254;47.696;9.138;2022-08-16T00:26:44;4.47;;;2.87;;
10414;SDS011;5254;47.696;9.138;2022-08-16T00:29:11;4.80;;;2.90;;
10414;SDS011;5254;47.696;9.138;2022-08-16T00:31:38;4.20;;;2.70;;
10414;SDS011;5254;47.696;9.138;2022-08-16T00:34:04;4.33;;;2.70;;
10414;SDS011;5254;47.696;9.138;2022-08-16T00:36:30;6.60;;;3.37;;
10414;SDS011;5254;47.696;9.138;2022-08-16T00:38:56;4.55;;;2.90;;
10414;SDS011;5254;47.696;9.138;2022-08-16T00:41:22;5.43;;;3.45;;
10414;SDS011;5254;47.696;9.138;2022-08-16T00:43:48;4.27;;;2.73;;
10414;SDS011;5254;47.696;9.138;2022-08-16T00:46:28;5.95;;;3.50;;
10414;SDS011;5254;47.696;9.138;2022-08-16T00:48:58;5.13;;;2.80;;
10414;SDS011;5254;47.696;9.138;2022-08-16T00:51:25;4.75;;;2.95;;
10414;SDS011;5254;47.696;9.138;2022-08-16T00:53:52;4.77;;;3.00;;
10414;SDS011;5254;47.696;9.138;2022-08-16T00:56:23;4.67;;;2.90;;
10414;SDS011;5254;47.696;9.138;2022-08-16T00:58:53;4.38;;;3.00;;
10414;SDS011;5254;47.696;9.138;2022-08-16T01:01:20;5.70;;;2.97;;
10414;SDS011;5254;47.696;9.138;2022-08-16T01:03:47;4.57;;;2.70;;
10414;SDS011;5254;47.696;9.138;2022-08-16T01:06:15;5.27;;;2.90;;
10414;SDS011;5254;47.696;9.138;2022-08-16T01:08:46;4.37;;;2.90;;
10414;SDS011;5254;47.696;9.138;2022-08-16T01:11:14;4.78;;;3.00;;
10414;SDS011;5254;47.696;9.138;2022-08-16T01:13:40;4.90;;;3.23;;
10414;SDS011;5254;47.696;9.138;2022-08-16T01:16:09;4.20;;;2.87;;
10414;SDS011;5254;47.696;9.138;2022-08-16T01:18:43;4.37;;;2.90;;
10414;SDS011;5254;47.696;9.138;2022-08-16T01:26:29;4.47;;;3.10;;
10414;SDS011;5254;47.696;9.138;2022-08-16T01:28:57;6.83;;;3.60;;
10414;SDS011;5254;47.696;9.138;2022-08-16T01:31:26;4.33;;;2.93;;
10414;SDS011;5254;47.696;9.138;2022-08-16T01:33:53;4.43;;;3.07;;
10414;SDS011;5254;47.696;9.138;2022-08-16T01:36:19;5.07;;;3.10;;
10414;SDS011;5254;47.696;9.138;2022-08-16T01:38:46;5.17;;;3.50;;
10414;SDS011;5254;47.696;9.138;2022-08-16T01:41:18;4.60;;;2.97;;
10414;SDS011;5254;47.696;9.138;2022-08-16T01:43:46;5.03;;;3.27;;
10414;SDS011;5254;47.696;9.138;2022-08-16T01:46:21;5.80;;;3.60;;
10414;SDS011;5254;47.696;9.138;2022-08-16T01:48:59;4.53;;;3.23;;
10414;SDS011;5254;47.696;9.138;2022-08-16T01:51:30;5.90;;;3.63;;
10414;SDS011;5254;47.696;9.138;2022-08-16T01:53:56;4.83;;;2.90;;
10414;SDS011;5254;47.696;9.138;2022-08-16T01:56:22;5.17;;;3.20;;
10414;SDS011;5254;47.696;9.138;2022-08-16T01:58:50;4.73;;;3.13;;
10414;SDS011;5254;47.696;9.138;2022-08-16T02:01:20;4.00;;;2.65;;
10414;SDS011;5254;47.696;9.138;2022-08-16T02:03:46;4.07;;;2.83;;
10414;SDS011;5254;47.696;9.138;2022-08-16T02:06:11;5.90;;;3.40;;
10414;SDS011;5254;47.696;9.138;2022-08-16T02:08:37;4.67;;;2.90;;
10414;SDS011;5254;47.696;9.138;2022-08-16T02:11:04;5.20;;;3.60;;
10414;SDS011;5254;47.696;9.138;2022-08-16T02:13:31;4.17;;;3.00;;
10414;SDS011;5254;47.696;9.138;2022-08-16T02:15:57;5.50;;;3.20;;
10414;SDS011;5254;47.696;9.138;2022-08-16T02:18:23;5.83;;;2.90;;
10414;SDS011;5254;47.696;9.138;2022-08-16T02:20:49;5.23;;;3.00;;
10414;SDS011;5254;47.696;9.138;2022-08-16T02:23:16;4.50;;;2.90;;
10414;SDS011;5254;47.696;9.138;2022-08-16T02:25:42;5.50;;;3.80;;
10414;SDS011;5254;47.696;9.138;2022-08-16T02:28:10;4.27;;;3.00;;
10414;SDS011;5254;47.696;9.138;2022-08-16T02:30:36;6.17;;;3.50;;
10414;SDS011;5254;47.696;9.138;2022-08-16T02:33:02;5.23;;;3.10;;
10414;SDS011;5254;47.696;9.138;2022-08-16T02:35:29;4.50;;;2.93;;
10414;SDS011;5254;47.696;9.138;2022-08-16T02:37:55;5.40;;;3.10;;
10414;SDS011;5254;47.696;9.138;2022-08-16T02:40:21;6.67;;;3.77;;
10414;SDS011;5254;47.696;9.138;2022-08-16T02:42:48;5.53;;;2.90;;
10414;SDS011;5254;47.696;9.138;2022-08-16T02:45:15;4.30;;;2.90;;
10414;SDS011;5254;47.696;9.138;2022-08-16T02:47:43;4.70;;;3.13;;
10414;SDS011;5254;47.696;9.138;2022-08-16T02:50:09;4.67;;;3.00;;
10414;SDS011;5254;47.696;9.138;2022-08-16T02:52:34;6.10;;;3.83;;
10414;SDS011;5254;47.696;9.138;2022-08-16T02:55:00;5.97;;;3.10;;
10414;SDS011;5254;47.696;9.138;2022-08-16T02:57:26;4.90;;;3.10;;
10414;SDS011;5254;47.696;9.138;2022-08-16T02:59:52;5.33;;;3.47;;
10414;SDS011;5254;47.696;9.138;2022-08-16T03:02:18;5.03;;;3.00;;
10414;SDS011;5254;47.696;9.138;2022-08-16T03:04:43;4.67;;;2.90;;
10414;SDS011;5254;47.696;9.138;2022-08-16T03:07:10;5.10;;;3.50;;
10414;SDS011;5254;47.696;9.138;2022-08-16T03:09:36;4.33;;;2.90;;
10414;SDS011;5254;47.696;9.138;2022-08-16T03:12:02;4.80;;;2.77;;
10414;SDS011;5254;47.696;9.138;2022-08-16T03:14:30;5.03;;;2.97;;
10414;SDS011;5254;47.696;9.138;2022-08-16T03:16:56;4.40;;;2.97;;
10414;SDS011;5254;47.696;9.138;2022-08-16T03:19:22;4.63;;;3.00;;
10414;SDS011;5254;47.696;9.138;2022-08-16T03:21:49;5.83;;;3.03;;
10414;SDS011;5254;47.696;9.138;2022-08-16T03:24:15;5.33;;;2.90;;
10414;SDS011;5254;47.696;9.138;2022-08-16T03:26:40;5.10;;;3.10;;
10414;SDS011;5254;47.696;9.138;2022-08-16T03:29:06;4.20;;;2.73;;
10414;SDS011;5254;47.696;9.138;2022-08-16T03:31:32;4.00;;;2.70;;
10414;SDS011;5254;47.696;9.138;2022-08-16T03:33:58;5.57;;;2.70;;
10414;SDS011;5254;47.696;9.138;2022-08-16T03:36:24;4.97;;;2.87;;
10414;SDS011;5254;47.696;9.138;2022-08-16T03:38:49;5.83;;;2.87;;
10414;SDS011;5254;47.696;9.138;2022-08-16T03:41:15;5.40;;;3.10;;
10414;SDS011;5254;47.696;9.138;2022-08-16T03:43:41;5.43;;;2.83;;
10414;SDS011;5254;47.696;9.138;2022-08-16T03:46:07;6.40;;;3.00;;
10414;SDS011;5254;47.696;9.138;2022-08-16T03:48:35;6.43;;;3.87;;
10414;SDS011;5254;47.696;9.138;2022-08-16T03:51:02;4.13;;;2.80;;
10414;SDS011;5254;47.696;9.138;2022-08-16T03:53:30;4.50;;;3.00;;
10414;SDS011;5254;47.696;9.138;2022-08-16T03:55:55;5.53;;;3.23;;
10414;SDS011;5254;47.696;9.138;2022-08-16T03:58:22;4.23;;;3.10;;
10414;SDS011;5254;47.696;9.138;2022-08-16T04:00:47;4.30;;;3.00;;
10414;SDS011;5254;47.696;9.138;2022-08-16T04:03:13;5.27;;;3.63;;
10414;SDS011;5254;47.696;9.138;2022-08-16T04:05:42;4.23;;;2.80;;
10414;SDS011;5254;47.696;9.138;2022-08-16T04:08:14;6.23;;;3.57;;
10414;SDS011;5254;47.696;9.138;2022-08-16T04:10:43;7.50;;;4.00;;
10414;SDS011;5254;47.696;9.138;2022-08-16T04:13:09;5.73;;;3.50;;
10414;SDS011;5254;47.696;9.138;2022-08-16T04:15:35;5.57;;;3.40;;
10414;SDS011;5254;47.696;9.138;2022-08-16T04:18:02;6.30;;;3.40;;
10414;SDS011;5254;47.696;9.138;2022-08-16T04:20:29;4.43;;;3.40;;
10414;SDS011;5254;47.696;9.138;2022-08-16T04:22:55;5.63;;;3.43;;
10414;SDS011;5254;47.696;9.138;2022-08-16T04:25:22;5.23;;;3.47;;
10414;SDS011;5254;47.696;9.138;2022-08-16T04:27:48;5.30;;;3.60;;
10414;SDS011;5254;47.696;9.138;2022-08-16T04:30:14;5.40;;;3.37;;
10414;SDS011;5254;47.696;9.138;2022-08-16T04:32:41;6.30;;;4.27;;
10414;SDS011;5254;47.696;9.138;2022-08-16T04:35:10;5.97;;;3.20;;
10414;SDS011;5254;47.696;9.138;2022-08-16T04:37:40;5.50;;;3.50;;
10414;SDS011;5254;47.696;9.138;2022-08-16T04:40:07;6.00;;;4.13;;
10414;SDS011;5254;47.696;9.138;2022-08-16T04:42:34;5.40;;;3.30;;
10414;SDS011;5254;47.696;9.138;2022-08-16T04:45:04;6.20;;;3.93;;
10414;SDS011;5254;47.696;9.138;2022-08-16T04:47:31;5.73;;;3.90;;
10414;SDS011;5254;47.696;9.138;2022-08-16T04:49:59;6.67;;;4.00;;
10414;SDS011;5254;47.696;9.138;2022-08-16T04:52:26;5.37;;;3.53;;
10414;SDS011;5254;47.696;9.138;2022-08-16T04:54:52;6.03;;;3.90;;
10414;SDS011;5254;47.696;9.138;2022-08-16T04:57:18;5.90;;;3.63;;
10414;SDS011;5254;47.696;9.138;2022-08-16T04:59:43;5.80;;;3.70;;
10414;SDS011;5254;47.696;9.138;2022-08-16T05:02:09;5.47;;;3.93;;
10414;SDS011;5254;47.696;9.138;2022-08-16T05:04:35;8.20;;;4.90;;
10414;SDS011;5254;47.696;9.138;2022-08-16T05:07:01;6.13;;;4.60;;
10414;SDS011;5254;47.696;9.138;2022-08-16T05:09:27;10.03;;;6.57;;
10414;SDS011;5254;47.696;9.138;2022-08-16T05:11:54;11.37;;;7.00;;
10414;SDS011;5254;47.696;9.138;2022-08-16T05:14:19;9.37;;;5.93;;
10414;SDS011;5254;47.696;9.138;2022-08-16T05:16:45;10.97;;;7.53;;
10414;SDS011;5254;47.696;9.138;2022-08-16T05:19:11;11.95;;;6.90;;
10414;SDS011;5254;47.696;9.138;2022-08-16T05:21:36;7.82;;;5.05;;
10414;SDS011;5254;47.696;9.138;2022-08-16T05:24:03;7.95;;;4.90;;
10414;SDS011;5254;47.696;9.138;2022-08-16T05:26:30;6.95;;;4.55;;
10414;SDS011;5254;47.696;9.138;2022-08-16T05:28:57;7.75;;;5.10;;
10414;SDS011;5254;47.696;9.138;2022-08-16T05:31:26;8.40;;;5.53;;
10414;SDS011;5254;47.696;9.138;2022-08-16T05:33:52;8.88;;;4.97;;
10414;SDS011;5254;47.696;9.138;2022-08-16T05:36:18;7.68;;;5.32;;
10414;SDS011;5254;47.696;9.138;2022-08-16T05:38:47;5.82;;;4.57;;
10414;SDS011;5254;47.696;9.138;2022-08-16T05:41:13;6.25;;;4.22;;
10414;SDS011;5254;47.696;9.138;2022-08-16T05:43:39;5.72;;;4.28;;
10414;SDS011;5254;47.696;9.138;2022-08-16T05:46:05;6.20;;;4.60;;
10414;SDS011;5254;47.696;9.138;2022-08-16T05:48:31;5.82;;;4.07;;
10414;SDS011;5254;47.696;9.138;2022-08-16T05:50:56;5.35;;;4.03;;
10414;SDS011;5254;47.696;9.138;2022-08-16T05:53:22;5.88;;;4.22;;
10414;SDS011;5254;47.696;9.138;2022-08-16T05:55:50;7.95;;;4.53;;
10414;SDS011;5254;47.696;9.138;2022-08-16T05:58:16;6.13;;;4.53;;
10414;SDS011;5254;47.696;9.138;2022-08-16T06:00:42;5.57;;;4.28;;
10414;SDS011;5254;47.696;9.138;2022-08-16T06:03:07;5.97;;;4.60;;
10414;SDS011;5254;47.696;9.138;2022-08-16T06:05:33;9.23;;;4.78;;
10414;SDS011;5254;47.696;9.138;2022-08-16T06:07:59;6.43;;;4.50;;
10414;SDS011;5254;47.696;9.138;2022-08-16T06:10:25;5.70;;;4.55;;
10414;SDS011;5254;47.696;9.138;2022-08-16T06:12:50;5.90;;;4.50;;
10414;SDS011;5254;47.696;9.138;2022-08-16T06:15:17;6.15;;;4.60;;
10414;SDS011;5254;47.696;9.138;2022-08-16T06:17:45;6.38;;;4.60;;
10414;SDS011;5254;47.696;9.138;2022-08-16T06:20:16;5.97;;;4.70;;
10414;SDS011;5254;47.696;9.138;2022-08-16T06:22:43;5.18;;;4.15;;
10414;SDS011;5254;47.696;9.138;2022-08-16T06:25:11;6.35;;;4.40;;
10414;SDS011;5254;47.696;9.138;2022-08-16T06:27:37;6.05;;;4.85;;
10414;SDS011;5254;47.696;9.138;2022-08-16T06:30:07;9.20;;;6.47;;
10414;SDS011;5254;47.696;9.138;2022-08-16T06:32:36;6.55;;;5.45;;
10414;SDS011;5254;47.696;9.138;2022-08-16T06:35:02;7.25;;;5.18;;
10414;SDS011;5254;47.696;9.138;2022-08-16T06:37:29;7.95;;;5.53;;
10414;SDS011;5254;47.696;9.138;2022-08-16T06:39:55;6.70;;;5.82;;
10414;SDS011;5254;47.696;9.138;2022-08-16T06:42:22;6.13;;;5.22;;
10414;SDS011;5254;47.696;9.138;2022-08-16T06:44:48;6.38;;;5.43;;
10414;SDS011;5254;47.696;9.138;2022-08-16T06:47:14;6.20;;;5.20;;
10414;SDS011;5254;47.696;9.138;2022-08-16T06:49:40;7.32;;;5.40;;
10414;SDS011;5254;47.696;9.138;2022-08-16T06:52:06;6.43;;;4.70;;
10414;SDS011;5254;47.696;9.138;2022-08-16T06:54:33;7.57;;;5.75;;
10414;SDS011;5254;47.696;9.138;2022-08-16T06:56:59;7.30;;;4.68;;
10414;SDS011;5254;47.696;9.138;2022-08-16T06:59:27;7.82;;;4.93;;
10414;SDS011;5254;47.696;9.138;2022-08-16T07:01:56;6.53;;;4.75;;
10414;SDS011;5254;47.696;9.138;2022-08-16T07:04:23;8.95;;;5.60;;
10414;SDS011;5254;47.696;9.138;2022-08-16T07:06:49;5.80;;;4.38;;
10414;SDS011;5254;47.696;9.138;2022-08-16T07:09:15;6.22;;;4.88;;
10414;SDS011;5254;47.696;9.138;2022-08-16T07:11:41;6.75;;;4.50;;
10414;SDS011;5254;47.696;9.138;2022-08-16T07:14:07;6.63;;;4.53;;
10414;SDS011;5254;47.696;9.138;2022-08-16T07:16:33;6.40;;;4.57;;
10414;SDS011;5254;47.696;9.138;2022-08-16T07:18:59;6.80;;;4.30;;
10414;SDS011;5254;47.696;9.138;2022-08-16T07:21:25;7.35;;;4.63;;
10414;SDS011;5254;47.696;9.138;2022-08-16T07:23:51;6.53;;;4.93;;
10414;SDS011;5254;47.696;9.138;2022-08-16T07:26:24;6.18;;;4.50;;
10414;SDS011;5254;47.696;9.138;2022-08-16T07:28:52;6.50;;;4.85;;
10414;SDS011;5254;47.696;9.138;2022-08-16T07:31:22;6.38;;;4.15;;
10414;SDS011;5254;47.696;9.138;2022-08-16T07:33:48;7.88;;;4.07;;
10414;SDS011;5254;47.696;9.138;2022-08-16T07:36:14;5.68;;;3.83;;
10414;SDS011;5254;47.696;9.138;2022-08-16T07:38:40;7.35;;;3.92;;
10414;SDS011;5254;47.696;9.138;2022-08-16T07:41:07;6.22;;;4.43;;
10414;SDS011;5254;47.696;9.138;2022-08-16T07:43:41;8.75;;;4.25;;
10414;SDS011;5254;47.696;9.138;2022-08-16T07:46:06;5.88;;;3.80;;
10414;SDS011;5254;47.696;9.138;2022-08-16T07:48:33;5.72;;;3.50;;
10414;SDS011;5254;47.696;9.138;2022-08-16T07:54:00;5.55;;;3.72;;
10414;SDS011;5254;47.696;9.138;2022-08-16T07:56:30;5.65;;;4.25;;
10414;SDS011;5254;47.696;9.138;2022-08-16T07:58:57;5.88;;;3.60;;
10414;SDS011;5254;47.696;9.138;2022-08-16T08:01:26;7.72;;;4.80;;
10414;SDS011;5254;47.696;9.138;2022-08-16T08:03:55;4.80;;;3.22;;
10414;SDS011;5254;47.696;9.138;2022-08-16T08:06:29;5.68;;;4.30;;
10414;SDS011;5254;47.696;9.138;2022-08-16T08:08:57;4.93;;;3.20;;
10414;SDS011;5254;47.696;9.138;2022-08-16T08:11:32;6.32;;;3.97;;
10414;SDS011;5254;47.696;9.138;2022-08-16T08:14:06;4.95;;;3.72;;
10414;SDS011;5254;47.696;9.138;2022-08-16T08:16:38;6.88;;;4.25;;
10414;SDS011;5254;47.696;9.138;2022-08-16T08:19:06;6.03;;;3.80;;
10414;SDS011;5254;47.696;9.138;2022-08-16T08:21:36;7.32;;;3.97;;
10414;SDS011;5254;47.696;9.138;2022-08-16T08:24:07;5.55;;;3.05;;
10414;SDS011;5254;47.696;9.138;2022-08-16T08:26:34;5.82;;;4.07;;
10414;SDS011;5254;47.696;9.138;2022-08-16T08:29:00;4.97;;;3.58;;
10414;SDS011;5254;47.696;9.138;2022-08-16T08:31:30;6.43;;;4.13;;
10414;SDS011;5254;47.696;9.138;2022-08-16T08:33:57;5.78;;;3.90;;
10414;SDS011;5254;47.696;9.138;2022-08-16T08:36:31;6.32;;;4.35;;
10414;SDS011;5254;47.696;9.138;2022-08-16T08:38:58;6.65;;;3.85;;
10414;SDS011;5254;47.696;9.138;2022-08-16T08:41:24;5.80;;;4.03;;
10414;SDS011;5254;47.696;9.138;2022-08-16T08:43:52;5.47;;;4.13;;
10414;SDS011;5254;47.696;9.138;2022-08-16T08:46:20;6.50;;;4.53;;
10414;SDS011;5254;47.696;9.138;2022-08-16T08:48:48;5.50;;;3.67;;
10414;SDS011;5254;47.696;9.138;2022-08-16T08:51:16;6.50;;;4.55;;
10414;SDS011;5254;47.696;9.138;2022-08-16T08:53:44;7.60;;;4.20;;
10414;SDS011;5254;47.696;9.138;2022-08-16T08:56:11;5.95;;;4.45;;
10414;SDS011;5254;47.696;9.138;2022-08-16T08:58:38;6.63;;;4.32;;
10414;SDS011;5254;47.696;9.138;2022-08-16T09:01:10;6.10;;;4.72;;
10414;SDS011;5254;47.696;9.138;2022-08-16T09:03:36;5.40;;;3.85;;
10414;SDS011;5254;47.696;9.138;2022-08-16T09:06:04;7.53;;;5.00;;
10414;SDS011;5254;47.696;9.138;2022-08-16T09:08:30;6.53;;;3.92;;
10414;SDS011;5254;47.696;9.138;2022-08-16T09:10:57;7.18;;;5.40;;
10414;SDS011;5254;47.696;9.138;2022-08-16T09:13:27;6.35;;;4.22;;
10414;SDS011;5254;47.696;9.138;2022-08-16T09:15:53;7.15;;;4.55;;
10414;SDS011;5254;47.696;9.138;2022-08-16T09:18:20;6.45;;;3.90;;
10414;SDS011;5254;47.696;9.138;2022-08-16T09:20:47;6.85;;;5.32;;
10414;SDS011;5254;47.696;9.138;2022-08-16T09:23:16;4.95;;;3.67;;
10414;SDS011;5254;47.696;9.138;2022-08-16T09:25:42;6.10;;;4.78;;
10414;SDS011;5254;47.696;9.138;2022-08-16T09:28:08;6.10;;;3.63;;
10414;SDS011;5254;47.696;9.138;2022-08-16T09:30:38;5.82;;;4.30;;
10414;SDS011;5254;47.696;9.138;2022-08-16T09:33:04;4.88;;;3.38;;
10414;SDS011;5254;47.696;9.138;2022-08-16T09:35:38;5.80;;;4.32;;
10414;SDS011;5254;47.696;9.138;2022-08-16T09:38:04;4.88;;;3.72;;
10414;SDS011;5254;47.696;9.138;2022-08-16T09:40:30;6.05;;;3.72;;
10414;SDS011;5254;47.696;9.138;2022-08-16T09:45:28;8.55;;;4.40;;
10414;SDS011;5254;47.696;9.138;2022-08-16T09:47:55;6.85;;;3.92;;
10414;SDS011;5254;47.696;9.138;2022-08-16T09:50:22;9.20;;;4.55;;
10414;SDS011;5254;47.696;9.138;2022-08-16T09:52:50;4.43;;;3.28;;
10414;SDS011;5254;47.696;9.138;2022-08-16T09:55:16;6.55;;;4.07;;
10414;SDS011;5254;47.696;9.138;2022-08-16T09:57:41;8.38;;;4.10;;
10414;SDS011;5254;47.696;9.138;2022-08-16T10:02:47;6.95;;;4.57;;
10414;SDS011;5254;47.696;9.138;2022-08-16T10:05:18;5.78;;;3.70;;
10414;SDS011;5254;47.696;9.138;2022-08-16T10:07:45;6.97;;;4.60;;
10414;SDS011;5254;47.696;9.138;2022-08-16T10:10:16;6.70;;;3.60;;
10414;SDS011;5254;47.696;9.138;2022-08-16T10:12:45;6.50;;;4.05;;
10414;SDS011;5254;47.696;9.138;2022-08-16T10:15:30;7.13;;;3.85;;
10414;SDS011;5254;47.696;9.138;2022-08-16T10:17:58;5.43;;;4.10;;
10414;SDS011;5254;47.696;9.138;2022-08-16T10:20:24;5.03;;;3.30;;
10414;SDS011;5254;47.696;9.138;2022-08-16T10:22:51;5.85;;;4.38;;
10414;SDS011;5254;47.696;9.138;2022-08-16T10:25:18;4.82;;;3.35;;
10414;SDS011;5254;47.696;9.138;2022-08-16T10:27:54;7.15;;;4.50;;
10414;SDS011;5254;47.696;9.138;2022-08-16T10:30:20;4.78;;;3.40;;
10414;SDS011;5254;47.696;9.138;2022-08-16T10:32:46;6.65;;;4.50;;
10414;SDS011;5254;47.696;9.138;2022-08-16T10:35:12;5.47;;;3.90;;
10414;SDS011;5254;47.696;9.138;2022-08-16T10:37:37;6.88;;;4.45;;
10414;SDS011;5254;47.696;9.138;2022-08-16T10:40:07;5.50;;;3.30;;
10414;SDS011;5254;47.696;9.138;2022-08-16T10:42:34;6.32;;;4.20;;
10414;SDS011;5254;47.696;9.138;2022-08-16T10:45:00;5.63;;;3.90;;
10414;SDS011;5254;47.696;9.138;2022-08-16T10:47:28;7.22;;;4.40;;
10414;SDS011;5254;47.696;9.138;2022-08-16T10:49:54;6.22;;;3.30;;
10414;SDS011;5254;47.696;9.138;2022-08-16T10:52:23;6.50;;;4.13;;
10414;SDS011;5254;47.696;9.138;2022-08-16T10:54:49;5.60;;;4.10;;
10414;SDS011;5254;47.696;9.138;2022-08-16T10:57:15;5.70;;;3.13;;
10414;SDS011;5254;47.696;9.138;2022-08-16T10:59:45;5.40;;;4.20;;
10414;SDS011;5254;47.696;9.138;2022-08-16T11:02:10;6.88;;;3.47;;
10414;SDS011;5254;47.696;9.138;2022-08-16T11:04:37;6.03;;;4.00;;
10414;SDS011;5254;47.696;9.138;2022-08-16T11:07:04;4.85;;;3.50;;
10414;SDS011;5254;47.696;9.138;2022-08-16T11:09:30;7.78;;;4.35;;
10414;SDS011;5254;47.696;9.138;2022-08-16T11:11:56;7.78;;;3.42;;
10414;SDS011;5254;47.696;9.138;2022-08-16T11:14:22;6.70;;;4.28;;
10414;SDS011;5254;47.696;9.138;2022-08-16T11:16:48;5.30;;;3.60;;
10414;SDS011;5254;47.696;9.138;2022-08-16T11:19:14;5.65;;;4.10;;
10414;SDS011;5254;47.696;9.138;2022-08-16T11:21:41;4.82;;;3.33;;
10414;SDS011;5254;47.696;9.138;2022-08-16T11:24:07;5.38;;;3.97;;
10414;SDS011;5254;47.696;9.138;2022-08-16T11:26:33;6.05;;;4.10;;
10414;SDS011;5254;47.696;9.138;2022-08-16T11:28:59;5.22;;;3.60;;
10414;SDS011;5254;47.696;9.138;2022-08-16T11:31:24;6.63;;;4.25;;
10414;SDS011;5254;47.696;9.138;2022-08-16T11:33:50;4.50;;;3.38;;
10414;SDS011;5254;47.696;9.138;2022-08-16T11:36:16;6.00;;;4.28;;
10414;SDS011;5254;47.696;9.138;2022-08-16T11:38:44;7.13;;;3.58;;
10414;SDS011;5254;47.696;9.138;2022-08-16T11:41:11;5.85;;;3.80;;
10414;SDS011;5254;47.696;9.138;2022-08-16T11:43:38;8.23;;;3.95;;
10414;SDS011;5254;47.696;9.138;2022-08-16T11:46:08;5.45;;;3.50;;
10414;SDS011;5254;47.696;9.138;2022-08-16T11:48:35;7.20;;;4.18;;
10414;SDS011;5254;47.696;9.138;2022-08-16T11:51:03;4.80;;;3.22;;
10414;SDS011;5254;47.696;9.138;2022-08-16T11:53:30;7.38;;;4.15;;
10414;SDS011;5254;47.696;9.138;2022-08-16T11:56:15;5.70;;;3.20;;
10414;SDS011;5254;47.696;9.138;2022-08-16T11:58:41;8.15;;;4.50;;
10414;SDS011;5254;47.696;9.138;2022-08-16T12:01:07;5.82;;;3.88;;
10414;SDS011;5254;47.696;9.138;2022-08-16T12:03:34;7.15;;;4.00;;
10414;SDS011;5254;47.696;9.138;2022-08-16T12:06:02;8.13;;;4.40;;
10414;SDS011;5254;47.696;9.138;2022-08-16T12:08:41;5.50;;;3.20;;
10414;SDS011;5254;47.696;9.138;2022-08-16T12:11:09;5.70;;;3.63;;
10414;SDS011;5254;47.696;9.138;2022-08-16T12:13:38;6.40;;;4.00;;
10414;SDS011;5254;47.696;9.138;2022-08-16T12:16:07;4.47;;;3.25;;
10414;SDS011;5254;47.696;9.138;2022-08-16T12:18:34;5.95;;;3.97;;
10414;SDS011;5254;47.696;9.138;2022-08-16T12:21:02;6.05;;;3.97;;
10414;SDS011;5254;47.696;9.138;2022-08-16T12:23:28;4.95;;;3.20;;
10414;SDS011;5254;47.696;9.138;2022-08-16T12:25:54;7.22;;;4.20;;
10414;SDS011;5254;47.696;9.138;2022-08-16T12:28:22;6.03;;;3.38;;
10414;SDS011;5254;47.696;9.138;2022-08-16T12:30:50;5.35;;;4.20;;
10414;SDS011;5254;47.696;9.138;2022-08-16T12:33:16;5.63;;;3.42;;
10414;SDS011;5254;47.696;9.138;2022-08-16T12:35:44;6.43;;;3.83;;
10414;SDS011;5254;47.696;9.138;2022-08-16T12:38:13;5.03;;;3.22;;
10414;SDS011;5254;47.696;9.138;2022-08-16T12:40:40;6.18;;;4.30;;
10414;SDS011;5254;47.696;9.138;2022-08-16T12:43:08;4.60;;;3.28;;
10414;SDS011;5254;47.696;9.138;2022-08-16T12:45:39;6.40;;;3.88;;
10414;SDS011;5254;47.696;9.138;2022-08-16T12:48:10;5.22;;;3.30;;
10414;SDS011;5254;47.696;9.138;2022-08-16T12:51:11;5.70;;;3.90;;
10414;SDS011;5254;47.696;9.138;2022-08-16T12:53:38;5.57;;;3.30;;
10414;SDS011;5254;47.696;9.138;2022-08-16T12:56:05;7.78;;;4.30;;
10414;SDS011;5254;47.696;9.138;2022-08-16T12:58:33;6.32;;;3.53;;
10414;SDS011;5254;47.696;9.138;2022-08-16T13:01:02;5.93;;;3.80;;
10414;SDS011;5254;47.696;9.138;2022-08-16T13:03:29;4.22;;;3.00;;
10414;SDS011;5254;47.696;9.138;2022-08-16T13:05:55;4.50;;;3.42;;
10414;SDS011;5254;47.696;9.138;2022-08-16T13:08:22;5.68;;;4.05;;
10414;SDS011;5254;47.696;9.138;2022-08-16T13:10:49;6.72;;;3.35;;
10414;SDS011;5254;47.696;9.138;2022-08-16T13:13:18;5.57;;;4.10;;
10414;SDS011;5254;47.696;9.138;2022-08-16T13:15:53;6.40;;;3.42;;
10414;SDS011;5254;47.696;9.138;2022-08-16T13:18:21;5.53;;;4.00;;
10414;SDS011;5254;47.696;9.138;2022-08-16T13:20:49;5.63;;;3.42;;
10414;SDS011;5254;47.696;9.138;2022-08-16T13:23:15;7.63;;;4.20;;
10414;SDS011;5254;47.696;9.138;2022-08-16T13:25:42;7.07;;;3.50;;
10414;SDS011;5254;47.696;9.138;2022-08-16T13:28:10;6.80;;;4.15;;
10414;SDS011;5254;47.696;9.138;2022-08-16T13:30:38;5.85;;;3.13;;
10414;SDS011;5254;47.696;9.138;2022-08-16T13:33:13;5.85;;;4.07;;
10414;SDS011;5254;47.696;9.138;2022-08-16T13:35:43;5.18;;;3.30;;
10414;SDS011;5254;47.696;9.138;2022-08-16T13:38:14;5.50;;;4.00;;
10414;SDS011;5254;47.696;9.138;2022-08-16T13:40:42;5.63;;;3.42;;
10414;SDS011;5254;47.696;9.138;2022-08-16T13:43:11;7.15;;;3.90;;
10414;SDS011;5254;47.696;9.138;2022-08-16T13:45:40;5.93;;;3.47;;
10414;SDS011;5254;47.696;9.138;2022-08-16T13:48:06;7.15;;;4.10;;
10414;SDS011;5254;47.696;9.138;2022-08-16T13:50:33;6.50;;;3.70;;
10414;SDS011;5254;47.696;9.138;2022-08-16T13:52:59;7.35;;;4.13;;
10414;SDS011;5254;47.696;9.138;2022-08-16T13:55:25;5.22;;;3.45;;
10414;SDS011;5254;47.696;9.138;2022-08-16T13:57:52;6.35;;;3.97;;
10414;SDS011;5254;47.696;9.138;2022-08-16T14:00:19;4.80;;;3.38;;
10414;SDS011;5254;47.696;9.138;2022-08-16T14:02:46;7.72;;;4.25;;
10414;SDS011;5254;47.696;9.138;2022-08-16T14:05:12;5.85;;;3.60;;
10414;SDS011;5254;47.696;9.138;2022-08-16T14:07:40;6.28;;;4.28;;
10414;SDS011;5254;47.696;9.138;2022-08-16T14:10:07;5.28;;;3.30;;
10414;SDS011;5254;47.696;9.138;2022-08-16T14:12:38;5.80;;;4.30;;
10414;SDS011;5254;47.696;9.138;2022-08-16T14:15:06;5.45;;;3.40;;
10414;SDS011;5254;47.696;9.138;2022-08-16T14:17:35;6.65;;;4.30;;
10414;SDS011;5254;47.696;9.138;2022-08-16T14:20:03;7.38;;;3.40;;
10414;SDS011;5254;47.696;9.138;2022-08-16T14:22:31;5.20;;;3.97;;
10414;SDS011;5254;47.696;9.138;2022-08-16T14:25:03;5.57;;;3.47;;
10414;SDS011;5254;47.696;9.138;2022-08-16T14:27:31;5.85;;;3.70;;
10414;SDS011;5254;47.696;9.138;2022-08-16T14:29:58;6.43;;;3.40;;
10414;SDS011;5254;47.696;9.138;2022-08-16T14:32:25;6.93;;;4.07;;
10414;SDS011;5254;47.696;9.138;2022-08-16T14:34:52;5.18;;;3.35;;
10414;SDS011;5254;47.696;9.138;2022-08-16T14:37:20;5.03;;;3.30;;
10414;SDS011;5254;47.696;9.138;2022-08-16T14:39:46;5.90;;;4.00;;
10414;SDS011;5254;47.696;9.138;2022-08-16T14:44:42;5.55;;;3.72;;
10414;SDS011;5254;47.696;9.138;2022-08-16T14:47:09;5.70;;;3.50;;
10414;SDS011;5254;47.696;9.138;2022-08-16T14:49:35;7.05;;;4.18;;
10414;SDS011;5254;47.696;9.138;2022-08-16T14:52:02;4.65;;;3.30;;
10414;SDS011;5254;47.696;9.138;2022-08-16T14:54:31;6.30;;;4.25;;
10414;SDS011;5254;47.696;9.138;2022-08-16T14:56:57;4.30;;;3.17;;
10414;SDS011;5254;47.696;9.138;2022-08-16T15:01:53;5.53;;;3.53;;
10414;SDS011;5254;47.696;9.138;2022-08-16T15:04:20;5.80;;;3.67;;
10414;SDS011;5254;47.696;9.138;2022-08-16T15:06:47;4.90;;;3.20;;
10414;SDS011;5254;47.696;9.138;2022-08-16T15:09:13;5.40;;;3.33;;
10414;SDS011;5254;47.696;9.138;2022-08-16T15:11:39;5.85;;;3.90;;
10414;SDS011;5254;47.696;9.138;2022-08-16T15:14:05;4.88;;;3.20;;
10414;SDS011;5254;47.696;9.138;2022-08-16T15:16:32;7.47;;;4.35;;
10414;SDS011;5254;47.696;9.138;2022-08-16T15:18:58;5.18;;;3.40;;
10414;SDS011;5254;47.696;9.138;2022-08-16T15:21:25;5.50;;;3.72;;